createdAt,value
2018-07-13T00:00:18.216Z,0
2018-07-13T00:01:27.077Z,0
2018-07-13T00:02:35.938Z,0
2018-07-13T00:03:44.799Z,0
2018-07-13T00:04:53.936Z,0
2018-07-13T00:06:03.076Z,0
2018-07-13T00:07:12.209Z,0
2018-07-13T00:08:21.422Z,0
2018-07-13T00:09:30.574Z,0
2018-07-13T00:10:39.437Z,0
2018-07-13T00:11:48.300Z,0
2018-07-13T00:12:57.436Z,0
2018-07-13T00:14:06.455Z,0
2018-07-13T00:15:15.309Z,0
2018-07-13T00:16:24.169Z,0
2018-07-13T00:17:33.033Z,0
2018-07-13T00:18:42.177Z,0
2018-07-13T00:19:51.140Z,0
2018-07-13T00:21:00.002Z,0
2018-07-13T00:22:09.145Z,0
2018-07-13T00:23:18.009Z,0
2018-07-13T00:24:27.145Z,0
2018-07-13T00:25:36.157Z,0
2018-07-13T00:26:45.020Z,0
2018-07-13T00:27:54.158Z,0
2018-07-13T00:29:03.017Z,0
2018-07-13T00:30:11.880Z,0
2018-07-13T00:31:21.096Z,0
2018-07-13T00:32:29.957Z,0
2018-07-13T00:33:38.815Z,0
2018-07-13T00:34:47.677Z,0
2018-07-13T00:35:57.092Z,0
2018-07-13T00:37:06.332Z,0
2018-07-13T00:38:15.197Z,0
2018-07-13T00:39:24.332Z,0
2018-07-13T00:40:33.193Z,0
2018-07-13T00:41:42.097Z,0
2018-07-13T00:42:51.345Z,0
2018-07-13T00:44:00.483Z,0
2018-07-13T00:45:09.345Z,0
2018-07-13T00:46:18.209Z,0
2018-07-13T00:47:27.345Z,0
2018-07-13T00:48:36.556Z,0
2018-07-13T00:49:45.692Z,0
2018-07-13T00:50:54.555Z,0
2018-07-13T00:52:03.695Z,0
2018-07-13T00:53:12.558Z,0
2018-07-13T00:54:21.796Z,0
2018-07-13T00:55:30.657Z,0
2018-07-13T00:56:39.521Z,0
2018-07-13T00:57:48.658Z,0
2018-07-13T00:58:58.071Z,0
2018-07-13T01:00:06.934Z,0
2018-07-13T01:01:15.795Z,0
2018-07-13T01:02:24.656Z,0
2018-07-13T01:03:33.517Z,0
2018-07-13T01:04:42.378Z,0
2018-07-13T01:05:51.341Z,0
2018-07-13T01:07:00.484Z,0
2018-07-13T01:08:09.349Z,0
2018-07-13T01:09:18.212Z,0
2018-07-13T01:10:27.073Z,0
2018-07-13T01:11:36.213Z,0
2018-07-13T01:12:45.078Z,0
2018-07-13T01:13:53.936Z,0
2018-07-13T01:15:02.802Z,0
2018-07-13T01:16:11.937Z,0
2018-07-13T01:17:21.225Z,0
2018-07-13T01:18:30.083Z,0
2018-07-13T01:19:38.945Z,0
2018-07-13T01:20:47.809Z,0
2018-07-13T01:21:56.671Z,0
2018-07-13T01:23:05.806Z,0
2018-07-13T01:24:14.669Z,0
2018-07-13T01:25:23.535Z,0
2018-07-13T01:26:32.401Z,0
2018-07-13T01:27:41.257Z,0
2018-07-13T01:28:50.118Z,0
2018-07-13T01:29:58.980Z,0
2018-07-13T01:31:07.840Z,0
2018-07-13T01:32:16.703Z,0
2018-07-13T01:33:25.564Z,0
2018-07-13T01:34:34.426Z,0
2018-07-13T01:35:43.283Z,0
2018-07-13T01:36:52.143Z,0
2018-07-13T01:38:01.006Z,0
2018-07-13T01:39:09.867Z,0
2018-07-13T01:40:18.738Z,0
2018-07-13T01:41:27.598Z,0
2018-07-13T01:42:36.459Z,0
2018-07-13T01:43:45.316Z,0
2018-07-13T01:44:54.177Z,0
2018-07-13T01:46:03.143Z,0
2018-07-13T01:47:12.000Z,0
2018-07-13T01:48:21.138Z,0
2018-07-13T01:49:29.995Z,0
2018-07-13T01:50:38.855Z,0
2018-07-13T01:51:47.991Z,0
2018-07-13T01:52:56.849Z,0
2018-07-13T01:54:05.987Z,0
2018-07-13T01:55:14.851Z,0
2018-07-13T01:56:23.711Z,0
2018-07-13T01:57:32.721Z,0
2018-07-13T01:58:41.580Z,0
2018-07-13T01:59:50.718Z,0
2018-07-13T02:00:59.588Z,0
2018-07-13T02:02:08.448Z,0
2018-07-13T02:03:17.969Z,0
2018-07-13T02:04:27.106Z,0
2018-07-13T02:05:35.972Z,0
2018-07-13T02:06:44.836Z,0
2018-07-13T02:07:53.692Z,0
2018-07-13T02:09:02.553Z,0
2018-07-13T02:10:11.418Z,0
2018-07-13T02:11:20.556Z,0
2018-07-13T02:12:29.690Z,0
2018-07-13T02:13:38.550Z,0
2018-07-13T02:14:47.762Z,0
2018-07-13T02:15:56.899Z,0
2018-07-13T02:17:05.763Z,0
2018-07-13T02:18:14.898Z,0
2018-07-13T02:19:23.756Z,0
2018-07-13T02:20:32.620Z,0
2018-07-13T02:21:41.483Z,0
2018-07-13T02:22:50.680Z,0
2018-07-13T02:23:59.817Z,0
2018-07-13T02:25:08.676Z,0
2018-07-13T02:26:17.539Z,0
2018-07-13T02:27:26.674Z,0
2018-07-13T02:28:35.812Z,0
2018-07-13T02:29:44.670Z,0
2018-07-13T02:30:53.531Z,0
2018-07-13T02:32:02.397Z,0
2018-07-13T02:33:11.261Z,0
2018-07-13T02:34:20.405Z,0
2018-07-13T02:35:29.549Z,0
2018-07-13T02:36:38.965Z,0
2018-07-13T02:37:47.827Z,0
2018-07-13T02:38:56.731Z,0
2018-07-13T02:40:06.153Z,0
2018-07-13T02:41:15.017Z,0
2018-07-13T02:42:24.152Z,0
2018-07-13T02:43:33.013Z,0
2018-07-13T02:44:41.872Z,0
2018-07-13T02:45:51.283Z,4
2018-07-13T02:47:00.146Z,4
2018-07-13T02:48:09.012Z,4
2018-07-13T02:49:17.876Z,4
2018-07-13T02:50:27.016Z,4
2018-07-13T02:51:35.872Z,4
2018-07-13T02:52:44.732Z,4
2018-07-13T02:53:53.591Z,8
2018-07-13T02:55:02.603Z,4
2018-07-13T02:56:12.024Z,4
2018-07-13T02:57:21.452Z,4
2018-07-13T02:58:30.865Z,8
2018-07-13T02:59:40.007Z,8
2018-07-13T03:00:49.582Z,12
2018-07-13T03:01:58.447Z,8
2018-07-13T03:03:07.310Z,12
2018-07-13T03:04:16.446Z,12
2018-07-13T03:05:26.420Z,16
2018-07-13T03:06:35.286Z,16
2018-07-13T03:07:44.430Z,20
2018-07-13T03:08:53.289Z,20
2018-07-13T03:10:02.701Z,24
2018-07-13T03:11:11.842Z,24
2018-07-13T03:12:20.703Z,28
2018-07-13T03:13:29.857Z,32
2018-07-13T03:14:38.999Z,32
2018-07-13T03:15:48.136Z,36
2018-07-13T03:16:57.271Z,36
2018-07-13T03:18:06.847Z,44
2018-07-13T03:19:15.713Z,48
2018-07-13T03:20:24.574Z,48
2018-07-13T03:21:33.716Z,52
2018-07-13T03:22:42.858Z,56
2018-07-13T03:23:51.999Z,60
2018-07-13T03:25:00.859Z,60
2018-07-13T03:26:09.720Z,64
2018-07-13T03:27:18.584Z,68
2018-07-13T03:28:27.443Z,68
2018-07-13T03:29:36.302Z,76
2018-07-13T03:30:45.453Z,76
2018-07-13T03:31:54.596Z,88
2018-07-13T03:33:04.015Z,88
2018-07-13T03:34:13.154Z,96
2018-07-13T03:35:22.170Z,100
2018-07-13T03:36:31.032Z,108
2018-07-13T03:37:39.890Z,124
2018-07-13T03:38:48.751Z,124
2018-07-13T03:39:57.613Z,140
2018-07-13T03:41:06.577Z,156
2018-07-13T03:42:15.713Z,144
2018-07-13T03:43:24.574Z,144
2018-07-13T03:44:33.433Z,164
2018-07-13T03:45:42.583Z,168
2018-07-13T03:46:51.440Z,164
2018-07-13T03:48:00.578Z,176
2018-07-13T03:49:09.444Z,204
2018-07-13T03:50:18.301Z,220
2018-07-13T03:51:27.432Z,236
2018-07-13T03:52:36.293Z,240
2018-07-13T03:53:45.153Z,240
2018-07-13T03:54:54.015Z,244
2018-07-13T03:56:02.875Z,248
2018-07-13T03:57:11.735Z,240
2018-07-13T03:58:20.873Z,264
2018-07-13T03:59:29.733Z,284
2018-07-13T04:00:39.113Z,292
2018-07-13T04:01:48.272Z,276
2018-07-13T04:02:57.129Z,280
2018-07-13T04:04:06.133Z,284
2018-07-13T04:05:15.000Z,296
2018-07-13T04:06:24.200Z,316
2018-07-13T04:07:33.023Z,336
2018-07-13T04:08:41.885Z,348
2018-07-13T04:09:50.748Z,364
2018-07-13T04:10:59.606Z,392
2018-07-13T04:12:08.763Z,384
2018-07-13T04:13:17.622Z,396
2018-07-13T04:14:26.482Z,400
2018-07-13T04:15:35.619Z,416
2018-07-13T04:16:44.480Z,452
2018-07-13T04:17:53.619Z,468
2018-07-13T04:19:02.479Z,496
2018-07-13T04:20:11.339Z,472
2018-07-13T04:21:20.474Z,500
2018-07-13T04:22:29.618Z,520
2018-07-13T04:23:38.761Z,544
2018-07-13T04:24:47.621Z,556
2018-07-13T04:25:56.767Z,564
2018-07-13T04:27:05.909Z,560
2018-07-13T04:28:14.773Z,552
2018-07-13T04:29:23.630Z,548
2018-07-13T04:30:32.491Z,612
2018-07-13T04:31:41.349Z,648
2018-07-13T04:32:50.558Z,620
2018-07-13T04:33:59.693Z,584
2018-07-13T04:35:08.554Z,640
2018-07-13T04:36:17.413Z,616
2018-07-13T04:37:26.558Z,572
2018-07-13T04:38:35.569Z,596
2018-07-13T04:39:44.704Z,616
2018-07-13T04:40:53.975Z,660
2018-07-13T04:42:02.833Z,648
2018-07-13T04:43:11.690Z,640
2018-07-13T04:44:20.987Z,628
2018-07-13T04:45:29.848Z,636
2018-07-13T04:46:38.984Z,648
2018-07-13T04:47:48.123Z,656
2018-07-13T04:48:56.983Z,692
2018-07-13T04:50:06.035Z,676
2018-07-13T04:51:14.856Z,700
2018-07-13T04:52:23.713Z,664
2018-07-13T04:53:32.573Z,680
2018-07-13T04:54:41.434Z,720
2018-07-13T04:55:50.298Z,720
2018-07-13T04:56:59.436Z,712
2018-07-13T04:58:08.584Z,728
2018-07-13T04:59:17.724Z,784
2018-07-13T05:00:26.860Z,796
2018-07-13T05:01:35.720Z,796
2018-07-13T05:02:44.578Z,732
2018-07-13T05:03:53.715Z,800
2018-07-13T05:05:02.574Z,808
2018-07-13T05:06:11.495Z,844
2018-07-13T05:07:21.194Z,856
2018-07-13T05:08:30.052Z,868
2018-07-13T05:09:38.916Z,844
2018-07-13T05:10:47.775Z,852
2018-07-13T05:11:56.636Z,848
2018-07-13T05:13:05.503Z,880
2018-07-13T05:14:14.644Z,892
2018-07-13T05:15:23.504Z,848
2018-07-13T05:16:32.362Z,840
2018-07-13T05:17:41.498Z,856
2018-07-13T05:18:50.711Z,824
2018-07-13T05:19:59.572Z,856
2018-07-13T05:21:08.433Z,872
2018-07-13T05:22:17.293Z,908
2018-07-13T05:23:26.155Z,948
2018-07-13T05:24:35.116Z,964
2018-07-13T05:25:43.978Z,996
2018-07-13T05:26:52.839Z,944
2018-07-13T05:28:01.698Z,1056
2018-07-13T05:29:10.840Z,1060
2018-07-13T05:30:19.977Z,1164
2018-07-13T05:31:28.839Z,1172
2018-07-13T05:32:37.698Z,1200
2018-07-13T05:33:46.845Z,1340
2018-07-13T05:34:55.702Z,1484
2018-07-13T05:36:05.221Z,1572
2018-07-13T05:37:14.083Z,1516
2018-07-13T05:38:23.627Z,1516
2018-07-13T05:39:32.463Z,1592
2018-07-13T05:40:41.330Z,1844
2018-07-13T05:41:50.197Z,1872
2018-07-13T05:42:59.058Z,1788
2018-07-13T05:44:07.918Z,1760
2018-07-13T05:45:16.782Z,1840
2018-07-13T05:46:25.645Z,2000
2018-07-13T05:47:34.509Z,2112
2018-07-13T05:48:43.644Z,2016
2018-07-13T05:49:52.786Z,2208
2018-07-13T05:51:01.648Z,2664
2018-07-13T05:52:10.510Z,2620
2018-07-13T05:53:19.520Z,2296
2018-07-13T05:54:28.390Z,2308
2018-07-13T05:55:37.253Z,2144
2018-07-13T05:56:46.111Z,2284
2018-07-13T05:57:54.972Z,2480
2018-07-13T05:59:03.831Z,2496
2018-07-13T06:00:12.968Z,2504
2018-07-13T06:01:21.829Z,2724
2018-07-13T06:02:30.991Z,2680
2018-07-13T06:03:40.132Z,2432
2018-07-13T06:04:49.273Z,2468
2018-07-13T06:05:58.413Z,2528
2018-07-13T06:07:07.550Z,2400
2018-07-13T06:08:16.699Z,2352
2018-07-13T06:09:25.560Z,2296
2018-07-13T06:10:34.694Z,2284
2018-07-13T06:11:43.556Z,2480
2018-07-13T06:12:52.418Z,2364
2018-07-13T06:14:01.277Z,2336
2018-07-13T06:15:10.597Z,2260
2018-07-13T06:16:19.520Z,2248
2018-07-13T06:17:28.436Z,2252
2018-07-13T06:18:37.610Z,2388
2018-07-13T06:19:46.467Z,2400
2018-07-13T06:20:55.603Z,2252
2018-07-13T06:22:04.818Z,2272
2018-07-13T06:23:13.679Z,2224
2018-07-13T06:24:22.840Z,2340
2018-07-13T06:25:31.701Z,2304
2018-07-13T06:26:40.845Z,2684
2018-07-13T06:27:49.859Z,2820
2018-07-13T06:28:58.723Z,2868
2018-07-13T06:30:07.713Z,3324
2018-07-13T06:31:16.570Z,3236
2018-07-13T06:32:25.410Z,2584
2018-07-13T06:33:34.423Z,2508
2018-07-13T06:34:43.571Z,2504
2018-07-13T06:35:52.437Z,2628
2018-07-13T06:37:01.577Z,2900
2018-07-13T06:38:10.436Z,3216
2018-07-13T06:39:19.575Z,2924
2018-07-13T06:40:28.435Z,2728
2018-07-13T06:41:37.299Z,2748
2018-07-13T06:42:46.444Z,2960
2018-07-13T06:43:55.583Z,3196
2018-07-13T06:45:04.877Z,2860
2018-07-13T06:46:14.019Z,2656
2018-07-13T06:47:22.881Z,2776
2018-07-13T06:48:31.747Z,2748
2018-07-13T06:49:40.607Z,2748
2018-07-13T06:50:49.855Z,2980
2018-07-13T06:51:59.005Z,3164
2018-07-13T06:53:07.869Z,3248
2018-07-13T06:54:16.733Z,3332
2018-07-13T06:55:25.591Z,3376
2018-07-13T06:56:34.454Z,3528
2018-07-13T06:57:43.318Z,3344
2018-07-13T06:58:52.180Z,3228
2018-07-13T07:00:01.042Z,3400
2018-07-13T07:01:09.902Z,3392
2018-07-13T07:02:18.814Z,3132
2018-07-13T07:03:27.673Z,3076
2018-07-13T07:04:36.537Z,3016
2018-07-13T07:05:45.396Z,3024
2018-07-13T07:06:54.260Z,3032
2018-07-13T07:08:03.225Z,3416
2018-07-13T07:09:12.086Z,3420
2018-07-13T07:10:20.948Z,3136
2018-07-13T07:11:29.811Z,3168
2018-07-13T07:12:38.670Z,3380
2018-07-13T07:13:47.683Z,3732
2018-07-13T07:14:56.824Z,4336
2018-07-13T07:16:05.965Z,4132
2018-07-13T07:17:14.822Z,4056
2018-07-13T07:18:23.965Z,3848
2018-07-13T07:19:32.829Z,3848
2018-07-13T07:20:41.692Z,4180
2018-07-13T07:21:50.553Z,3816
2018-07-13T07:22:59.414Z,3604
2018-07-13T07:24:08.555Z,3680
2018-07-13T07:25:17.415Z,3844
2018-07-13T07:26:26.277Z,3968
2018-07-13T07:27:35.142Z,3968
2018-07-13T07:28:44.003Z,4044
2018-07-13T07:29:53.175Z,4132
2018-07-13T07:31:02.039Z,4348
2018-07-13T07:32:10.902Z,4360
2018-07-13T07:33:19.764Z,4396
2018-07-13T07:34:28.904Z,4240
2018-07-13T07:35:37.764Z,4316
2018-07-13T07:36:47.051Z,4204
2018-07-13T07:37:56.466Z,4160
2018-07-13T07:39:05.330Z,4168
2018-07-13T07:40:14.188Z,4012
2018-07-13T07:41:23.050Z,3824
2018-07-13T07:42:31.914Z,3724
2018-07-13T07:43:40.779Z,3668
2018-07-13T07:44:49.642Z,3748
2018-07-13T07:45:58.505Z,3628
2018-07-13T07:47:07.643Z,3760
2018-07-13T07:48:16.653Z,3680
2018-07-13T07:49:25.801Z,3748
2018-07-13T07:50:35.216Z,3956
2018-07-13T07:51:44.077Z,3964
2018-07-13T07:52:53.226Z,3712
2018-07-13T07:54:02.712Z,3860
2018-07-13T07:55:11.573Z,4320
2018-07-13T07:56:20.437Z,4460
2018-07-13T07:57:29.340Z,4820
2018-07-13T07:58:38.513Z,5176
2018-07-13T07:59:47.728Z,5536
2018-07-13T08:00:56.591Z,5300
2018-07-13T08:02:05.729Z,4628
2018-07-13T08:03:14.591Z,4416
2018-07-13T08:04:23.725Z,4652
2018-07-13T08:05:32.590Z,4892
2018-07-13T08:06:41.623Z,4756
2018-07-13T08:07:51.933Z,4696
2018-07-13T08:09:01.070Z,4668
2018-07-13T08:10:09.932Z,4732
2018-07-13T08:11:19.233Z,5036
2018-07-13T08:12:28.089Z,5260
2018-07-13T08:13:37.066Z,5148
2018-07-13T08:14:46.272Z,5120
2018-07-13T08:15:55.132Z,4936
2018-07-13T08:17:04.046Z,4920
2018-07-13T08:18:13.186Z,5104
2018-07-13T08:19:22.049Z,5208
2018-07-13T08:20:31.187Z,5344
2018-07-13T08:21:40.047Z,5604
2018-07-13T08:22:49.058Z,5416
2018-07-13T08:23:57.917Z,5280
2018-07-13T08:25:06.782Z,5208
2018-07-13T08:26:15.643Z,4988
2018-07-13T08:27:24.504Z,4932
2018-07-13T08:28:33.464Z,5108
2018-07-13T08:29:42.324Z,5404
2018-07-13T08:30:51.187Z,5460
2018-07-13T08:32:00.052Z,6256
2018-07-13T08:33:08.915Z,5348
2018-07-13T08:34:17.926Z,5216
2018-07-13T08:35:27.069Z,5340
2018-07-13T08:36:35.929Z,5548
2018-07-13T08:37:45.100Z,5364
2018-07-13T08:38:53.958Z,5264
2018-07-13T08:40:02.822Z,5596
2018-07-13T08:41:11.683Z,5004
2018-07-13T08:42:20.550Z,4856
2018-07-13T08:43:29.410Z,5304
2018-07-13T08:44:38.271Z,5420
2018-07-13T08:45:47.173Z,5448
2018-07-13T08:46:56.302Z,5696
2018-07-13T08:48:05.165Z,5492
2018-07-13T08:49:14.027Z,5532
2018-07-13T08:50:22.933Z,5180
2018-07-13T08:51:31.916Z,5376
2018-07-13T08:52:40.766Z,5960
2018-07-13T08:53:49.909Z,6760
2018-07-13T08:54:58.774Z,7240
2018-07-13T08:56:07.709Z,7432
2018-07-13T08:57:16.651Z,6448
2018-07-13T08:58:25.796Z,6120
2018-07-13T08:59:34.931Z,5960
2018-07-13T09:00:43.797Z,5988
2018-07-13T09:01:52.934Z,5904
2018-07-13T09:03:02.079Z,6180
2018-07-13T09:04:11.248Z,6740
2018-07-13T09:05:20.423Z,6892
2018-07-13T09:06:29.338Z,7528
2018-07-13T09:07:38.980Z,6760
2018-07-13T09:08:47.892Z,7360
2018-07-13T09:09:56.755Z,7512
2018-07-13T09:11:05.892Z,7416
2018-07-13T09:12:14.756Z,7612
2018-07-13T09:13:23.640Z,8260
2018-07-13T09:14:32.881Z,8280
2018-07-13T09:15:42.019Z,7456
2018-07-13T09:16:50.884Z,7420
2018-07-13T09:17:59.750Z,8256
2018-07-13T09:19:08.609Z,8792
2018-07-13T09:20:17.746Z,9024
2018-07-13T09:21:26.936Z,8804
2018-07-13T09:22:35.799Z,9320
2018-07-13T09:23:44.663Z,9764
2018-07-13T09:24:53.522Z,10048
2018-07-13T09:26:02.737Z,10828
2018-07-13T09:27:11.879Z,11176
2018-07-13T09:28:21.019Z,10832
2018-07-13T09:29:29.882Z,10616
2018-07-13T09:30:38.743Z,10852
2018-07-13T09:31:47.606Z,11620
2018-07-13T09:32:56.470Z,11988
2018-07-13T09:34:05.390Z,11344
2018-07-13T09:35:14.556Z,11916
2018-07-13T09:36:23.696Z,12528
2018-07-13T09:37:32.660Z,11688
2018-07-13T09:38:41.527Z,11680
2018-07-13T09:39:50.676Z,12800
2018-07-13T09:40:59.535Z,12732
2018-07-13T09:42:08.399Z,12584
2018-07-13T09:43:17.552Z,12920
2018-07-13T09:44:26.694Z,13332
2018-07-13T09:45:35.556Z,13056
2018-07-13T09:46:45.224Z,12332
2018-07-13T09:47:54.501Z,13232
2018-07-13T09:49:03.460Z,12964
2018-07-13T09:50:12.325Z,13552
2018-07-13T09:51:21.192Z,13448
2018-07-13T09:52:30.060Z,13064
2018-07-13T09:53:39.376Z,13584
2018-07-13T09:54:48.694Z,12824
2018-07-13T09:55:57.560Z,13424
2018-07-13T09:57:06.432Z,13124
2018-07-13T09:58:15.570Z,13528
2018-07-13T09:59:24.439Z,12960
2018-07-13T10:00:34.238Z,12724
2018-07-13T10:01:42.968Z,12688
2018-07-13T10:02:51.833Z,12752
2018-07-13T10:04:01.258Z,13808
2018-07-13T10:05:10.405Z,13852
2018-07-13T10:06:19.470Z,10716
2018-07-13T10:07:28.283Z,10164
2018-07-13T10:08:37.146Z,9840
2018-07-13T10:09:46.012Z,11072
2018-07-13T10:10:55.436Z,10412
2018-07-13T10:12:04.575Z,6888
2018-07-13T10:13:13.440Z,7040
2018-07-13T10:14:22.303Z,5592
2018-07-13T10:15:31.167Z,5612
2018-07-13T10:16:40.032Z,6180
2018-07-13T10:17:48.897Z,6912
2018-07-13T10:18:57.762Z,8068
2018-07-13T10:20:06.624Z,7724
2018-07-13T10:21:16.046Z,7904
2018-07-13T10:22:24.911Z,7568
2018-07-13T10:23:33.775Z,8616
2018-07-13T10:24:42.916Z,9592
2018-07-13T10:25:51.782Z,7708
2018-07-13T10:27:00.650Z,7080
2018-07-13T10:28:09.510Z,9288
2018-07-13T10:29:18.605Z,10932
2018-07-13T10:30:27.673Z,9220
2018-07-13T10:31:36.537Z,8192
2018-07-13T10:32:45.400Z,8204
2018-07-13T10:33:54.265Z,5920
2018-07-13T10:35:03.408Z,5848
2018-07-13T10:36:12.273Z,5740
2018-07-13T10:37:21.419Z,5364
2018-07-13T10:38:30.284Z,5240
2018-07-13T10:39:39.433Z,5096
2018-07-13T10:40:48.447Z,5312
2018-07-13T10:41:57.313Z,5584
2018-07-13T10:43:06.452Z,5732
2018-07-13T10:44:15.316Z,5764
2018-07-13T10:45:24.181Z,5356
2018-07-13T10:46:33.048Z,5228
2018-07-13T10:47:42.319Z,5268
2018-07-13T10:48:51.115Z,5104
2018-07-13T10:49:59.980Z,4996
2018-07-13T10:51:09.129Z,5100
2018-07-13T10:52:18.270Z,5172
2018-07-13T10:53:27.136Z,5236
2018-07-13T10:54:36.000Z,5288
2018-07-13T10:55:44.864Z,5084
2018-07-13T10:56:53.732Z,4976
2018-07-13T10:58:03.035Z,5100
2018-07-13T10:59:12.173Z,5008
2018-07-13T11:00:21.038Z,4760
2018-07-13T11:01:29.905Z,4924
2018-07-13T11:02:39.045Z,5196
2018-07-13T11:03:48.062Z,5484
2018-07-13T11:04:56.921Z,5012
2018-07-13T11:06:05.798Z,5024
2018-07-13T11:07:14.933Z,5196
2018-07-13T11:08:23.799Z,5416
2018-07-13T11:09:32.664Z,5288
2018-07-13T11:10:41.530Z,5496
2018-07-13T11:11:50.397Z,5592
2018-07-13T11:12:59.261Z,5476
2018-07-13T11:14:08.240Z,5580
2018-07-13T11:15:16.989Z,5432
2018-07-13T11:16:26.134Z,5520
2018-07-13T11:17:34.997Z,5544
2018-07-13T11:18:43.860Z,6404
2018-07-13T11:19:52.723Z,7164
2018-07-13T11:21:02.495Z,6176
2018-07-13T11:22:11.358Z,6064
2018-07-13T11:23:20.225Z,5404
2018-07-13T11:24:29.090Z,5412
2018-07-13T11:25:37.954Z,5500
2018-07-13T11:26:46.817Z,5544
2018-07-13T11:27:55.963Z,5452
2018-07-13T11:29:05.380Z,6184
2018-07-13T11:30:14.244Z,6820
2018-07-13T11:31:23.108Z,6512
2018-07-13T11:32:32.073Z,6744
2018-07-13T11:33:41.218Z,5828
2018-07-13T11:34:50.084Z,6012
2018-07-13T11:35:58.947Z,6088
2018-07-13T11:37:07.973Z,6616
2018-07-13T11:38:16.827Z,7540
2018-07-13T11:39:25.691Z,6680
2018-07-13T11:40:34.561Z,5744
2018-07-13T11:41:43.426Z,5632
2018-07-13T11:42:52.288Z,5584
2018-07-13T11:44:01.338Z,6600
2018-07-13T11:45:10.184Z,8880
2018-07-13T11:46:19.597Z,8832
2018-07-13T11:47:28.745Z,7276
2018-07-13T11:48:37.608Z,6348
2018-07-13T11:49:46.624Z,5972
2018-07-13T11:50:55.765Z,6872
2018-07-13T11:52:04.966Z,7968
2018-07-13T11:53:13.805Z,8752
2018-07-13T11:54:22.672Z,12216
2018-07-13T11:55:31.639Z,15452
2018-07-13T11:56:40.501Z,14956
2018-07-13T11:57:49.367Z,16036
2018-07-13T11:58:58.230Z,9940
2018-07-13T12:00:07.095Z,7560
2018-07-13T12:01:15.962Z,18944
2018-07-13T12:02:24.829Z,62528
2018-07-13T12:03:33.694Z,76928
2018-07-13T12:04:42.562Z,79040
2018-07-13T12:05:51.704Z,78752
2018-07-13T12:07:00.570Z,79616
2018-07-13T12:08:09.439Z,71648
2018-07-13T12:09:19.144Z,73856
2018-07-13T12:10:28.019Z,75456
2018-07-13T12:11:36.890Z,59040
2018-07-13T12:12:46.150Z,75616
2018-07-13T12:13:55.019Z,71392
2018-07-13T12:15:03.889Z,75712
2018-07-13T12:16:12.758Z,76544
2018-07-13T12:17:22.039Z,73280
2018-07-13T12:18:31.222Z,76352
2018-07-13T12:19:40.089Z,83488
2018-07-13T12:20:48.958Z,82144
2018-07-13T12:21:57.825Z,84608
2018-07-13T12:23:06.700Z,83584
2018-07-13T12:24:15.849Z,83232
2018-07-13T12:25:24.722Z,84096
2018-07-13T12:26:33.870Z,80224
2018-07-13T12:27:42.740Z,76608
2018-07-13T12:28:51.611Z,76128
2018-07-13T12:30:00.635Z,81408
2018-07-13T12:31:09.784Z,89568
2018-07-13T12:32:18.660Z,87392
2018-07-13T12:33:27.530Z,87200
2018-07-13T12:34:36.401Z,82848
2018-07-13T12:35:45.429Z,81952
2018-07-13T12:36:54.305Z,83840
2018-07-13T12:38:03.454Z,80288
2018-07-13T12:39:12.329Z,79040
2018-07-13T12:40:21.202Z,76960
2018-07-13T12:41:30.453Z,82048
2018-07-13T12:42:39.325Z,86656
2018-07-13T12:43:48.199Z,84256
2018-07-13T12:44:57.073Z,91008
2018-07-13T12:46:05.953Z,95712
2018-07-13T12:47:15.643Z,83936
2018-07-13T12:48:24.518Z,80768
2018-07-13T12:49:33.395Z,82432
2018-07-13T12:50:42.266Z,86528
2018-07-13T12:51:51.146Z,79328
2018-07-13T12:53:00.581Z,78400
2018-07-13T12:54:10.092Z,69184
2018-07-13T12:55:19.645Z,55392
2018-07-13T12:56:28.523Z,59008
2018-07-13T12:57:37.397Z,64448
2018-07-13T12:58:46.422Z,51520
2018-07-13T12:59:55.294Z,56096
2018-07-13T13:01:04.169Z,69760
2018-07-13T13:02:13.047Z,58752
2018-07-13T13:03:21.921Z,54848
2018-07-13T13:04:31.148Z,63648
2018-07-13T13:05:40.166Z,69888
2018-07-13T13:06:49.282Z,75104
2018-07-13T13:07:58.440Z,79968
2018-07-13T13:09:07.315Z,81024
2018-07-13T13:10:16.291Z,76064
2018-07-13T13:11:25.497Z,81696
2018-07-13T13:12:34.373Z,85568
2018-07-13T13:13:43.249Z,85248
2018-07-13T13:14:52.128Z,74208
2018-07-13T13:16:01.004Z,68480
2018-07-13T13:17:09.883Z,66592
2018-07-13T13:18:18.760Z,75776
2018-07-13T13:19:27.923Z,48416
2018-07-13T13:20:36.800Z,74464
2018-07-13T13:21:46.191Z,78496
2018-07-13T13:22:54.958Z,83744
2018-07-13T13:24:03.834Z,82816
2018-07-13T13:25:12.717Z,81344
2018-07-13T13:26:21.593Z,83328
2018-07-13T13:27:30.900Z,78752
2018-07-13T13:28:40.056Z,79392
2018-07-13T13:29:48.931Z,83200
2018-07-13T13:30:58.364Z,83776
2018-07-13T13:32:07.240Z,79520
2018-07-13T13:33:16.544Z,79776
2018-07-13T13:34:25.703Z,82496
2018-07-13T13:35:34.979Z,72704
2018-07-13T13:36:43.798Z,82336
2018-07-13T13:37:52.950Z,83168
2018-07-13T13:39:01.828Z,86240
2018-07-13T13:40:10.709Z,87424
2018-07-13T13:41:19.582Z,87104
2018-07-13T13:42:28.462Z,82880
2018-07-13T13:43:37.620Z,83168
2018-07-13T13:44:47.123Z,84320
2018-07-13T13:45:56.002Z,84384
2018-07-13T13:47:05.428Z,87072
2018-07-13T13:48:14.307Z,88640
2018-07-13T13:49:23.183Z,92448
2018-07-13T13:50:32.258Z,86208
2018-07-13T13:51:41.091Z,85440
2018-07-13T13:52:49.967Z,87808
2018-07-13T13:53:59.126Z,84480
2018-07-13T13:55:08.010Z,84480
2018-07-13T13:56:17.038Z,84320
2018-07-13T13:57:25.916Z,85664
2018-07-13T13:58:34.796Z,84096
2018-07-13T13:59:43.732Z,84768
2018-07-13T14:00:52.910Z,85920
2018-07-13T14:02:01.786Z,83360
2018-07-13T14:03:10.666Z,82240
2018-07-13T14:04:19.540Z,81280
2018-07-13T14:05:28.800Z,78144
2018-07-13T14:06:38.336Z,80480
2018-07-13T14:07:47.216Z,84704
2018-07-13T14:08:56.416Z,84448
2018-07-13T14:10:05.284Z,89440
2018-07-13T14:11:14.447Z,88992
2018-07-13T14:12:24.079Z,86400
2018-07-13T14:13:34.270Z,84992
2018-07-13T14:14:44.051Z,81536
2018-07-13T14:15:52.901Z,80928
2018-07-13T14:17:01.782Z,79808
2018-07-13T14:18:10.663Z,84352
2018-07-13T14:19:19.846Z,85600
2018-07-13T14:20:29.166Z,85664
2018-07-13T14:21:38.047Z,85824
2018-07-13T14:22:46.925Z,82976
2018-07-13T14:23:56.079Z,79520
2018-07-13T14:25:05.109Z,78016
2018-07-13T14:26:13.992Z,76384
2018-07-13T14:27:22.869Z,76832
2018-07-13T14:28:32.041Z,77696
2018-07-13T14:29:41.196Z,79968
2018-07-13T14:30:50.274Z,79552
2018-07-13T14:31:59.429Z,75040
2018-07-13T14:33:08.309Z,83008
2018-07-13T14:34:17.191Z,81984
2018-07-13T14:35:26.352Z,83008
2018-07-13T14:36:35.503Z,83840
2018-07-13T14:37:44.382Z,83712
2018-07-13T14:38:53.544Z,80000
2018-07-13T14:40:02.448Z,79776
2018-07-13T14:41:11.305Z,82560
2018-07-13T14:42:20.336Z,82016
2018-07-13T14:43:29.209Z,78336
2018-07-13T14:44:38.088Z,77664
2018-07-13T14:45:47.244Z,76928
2018-07-13T14:46:57.040Z,76576
2018-07-13T14:48:05.946Z,76960
2018-07-13T14:49:15.104Z,77760
2018-07-13T14:50:23.989Z,78368
2018-07-13T14:51:32.861Z,75296
2018-07-13T14:52:42.021Z,77504
2018-07-13T14:53:50.897Z,77728
2018-07-13T14:54:59.777Z,75136
2018-07-13T14:56:09.014Z,74304
2018-07-13T14:57:18.229Z,75584
2018-07-13T14:58:27.111Z,80928
2018-07-13T14:59:36.108Z,79488
2018-07-13T15:00:45.268Z,80192
2018-07-13T15:01:54.431Z,82496
2018-07-13T15:03:03.588Z,79744
2018-07-13T15:04:12.515Z,79392
2018-07-13T15:05:21.705Z,81248
2018-07-13T15:06:32.098Z,80992
2018-07-13T15:07:41.949Z,81376
2018-07-13T15:08:50.826Z,83712
2018-07-13T15:09:59.703Z,80224
2018-07-13T15:11:08.686Z,78208
2018-07-13T15:12:17.566Z,77856
2018-07-13T15:13:26.723Z,80352
2018-07-13T15:14:35.602Z,81344
2018-07-13T15:15:44.482Z,80544
2018-07-13T15:16:53.359Z,77184
2018-07-13T15:18:02.647Z,75584
2018-07-13T15:19:11.812Z,80096
2018-07-13T15:20:20.692Z,81216
2018-07-13T15:21:29.569Z,76896
2018-07-13T15:22:38.448Z,76736
2018-07-13T15:23:47.326Z,74336
2018-07-13T15:24:56.203Z,75488
2018-07-13T15:26:05.085Z,76768
2018-07-13T15:27:14.241Z,73344
2018-07-13T15:28:23.548Z,73568
2018-07-13T15:29:32.425Z,74080
2018-07-13T15:30:41.305Z,73792
2018-07-13T15:31:50.183Z,74528
2018-07-13T15:32:59.058Z,73216